Time;durP1;ratioP1;P1;durP2;ratioP2;P2;SDS_P1;SDS_P2;PMS_P1;PMS_P2;Temp;Humidity;BMP_temperature;BMP_pressure;BME280_temperature;BME280_humidity;BME280_pressure;Samples;Min_cycle;Max_cycle;Signal;HPM_P1;HPM_P2
2021/08/26 00:01:10;;;;;;;5.97;3.10;;;;;;;;;;5138688;28;20430;-55
2021/08/26 00:06:25;;;;;;;4.17;3.13;;;;;;;;;;5122610;28;20551;-51
2021/08/26 00:08:58;;;;;;;7.90;3.70;;;;;;;;;;5118314;28;20455;-52
2021/08/26 00:11:25;;;;;;;6.33;4.20;;;;;;;;;;5118499;28;20451;-51
2021/08/26 00:13:53;;;;;;;5.70;4.70;;;;;;;;;;5118370;28;20435;-48
2021/08/26 00:16:21;;;;;;;5.50;3.87;;;;;;;;;;5118235;28;20431;-52
2021/08/26 00:18:49;;;;;;;8.63;5.73;;;;;;;;;;5100991;28;20439;-53
2021/08/26 00:21:17;;;;;;;7.80;5.77;;;;;;;;;;5118248;28;20466;-48
2021/08/26 00:23:46;;;;;;;7.70;5.77;;;;;;;;;;5118020;28;20474;-51
2021/08/26 00:26:13;;;;;;;8.40;6.77;;;;;;;;;;5100564;28;20473;-49
2021/08/26 00:28:59;;;;;;;10.47;7.17;;;;;;;;;;5118245;28;20753;-49
2021/08/26 00:31:27;;;;;;;11.43;7.40;;;;;;;;;;5118173;28;20461;-46
2021/08/26 00:33:54;;;;;;;13.80;8.07;;;;;;;;;;5118094;28;20427;-52
2021/08/26 00:36:51;;;;;;;7.10;6.27;;;;;;;;;;5118306;28;20458;-54
2021/08/26 00:39:20;;;;;;;8.73;6.80;;;;;;;;;;5117383;28;20442;-54
2021/08/26 00:41:47;;;;;;;12.63;8.13;;;;;;;;;;5118377;28;20443;-54
2021/08/26 00:44:14;;;;;;;9.87;7.73;;;;;;;;;;5118107;28;20534;-51
2021/08/26 00:46:42;;;;;;;13.17;7.90;;;;;;;;;;5117972;28;20435;-50
2021/08/26 00:49:12;;;;;;;9.57;8.20;;;;;;;;;;5118108;28;20458;-49
2021/08/26 00:51:39;;;;;;;10.13;8.17;;;;;;;;;;5118042;28;20461;-50
2021/08/26 00:54:09;;;;;;;12.20;8.70;;;;;;;;;;5098685;28;20507;-52
2021/08/26 00:56:38;;;;;;;9.10;7.87;;;;;;;;;;5097425;28;20456;-55
2021/08/26 00:59:06;;;;;;;11.87;10.03;;;;;;;;;;5097455;28;20444;-51
2021/08/26 01:01:43;;;;;;;12.20;10.40;;;;;;;;;;5097685;28;20478;-49
2021/08/26 01:04:13;;;;;;;11.87;10.53;;;;;;;;;;5097822;28;20459;-47
2021/08/26 01:06:56;;;;;;;11.83;10.50;;;;;;;;;;5097628;28;20464;-52
2021/08/26 01:09:26;;;;;;;12.73;10.60;;;;;;;;;;5100981;28;20460;-50
2021/08/26 01:11:55;;;;;;;11.80;10.50;;;;;;;;;;5101304;28;20456;-47
2021/08/26 01:14:22;;;;;;;13.30;9.80;;;;;;;;;;5101146;28;20460;-50
2021/08/26 01:16:49;;;;;;;13.03;10.90;;;;;;;;;;5101033;28;20468;-50
2021/08/26 01:19:16;;;;;;;13.03;10.37;;;;;;;;;;5100657;28;20417;-54
2021/08/26 01:21:44;;;;;;;14.90;11.50;;;;;;;;;;5101044;28;20420;-49
2021/08/26 01:24:15;;;;;;;13.20;10.90;;;;;;;;;;5100701;28;20491;-55
2021/08/26 01:26:46;;;;;;;18.43;11.53;;;;;;;;;;5100960;28;20444;-50
2021/08/26 01:29:14;;;;;;;11.43;10.07;;;;;;;;;;5100517;28;20440;-54
2021/08/26 01:31:42;;;;;;;14.40;11.73;;;;;;;;;;5100702;28;20464;-54
2021/08/26 01:34:09;;;;;;;14.90;10.87;;;;;;;;;;5100514;28;20429;-47
2021/08/26 01:36:37;;;;;;;19.03;12.83;;;;;;;;;;5100760;28;20450;-53
2021/08/26 01:39:05;;;;;;;13.53;11.97;;;;;;;;;;5100578;28;20509;-53
2021/08/26 01:41:44;;;;;;;17.90;12.33;;;;;;;;;;5105289;28;20486;-51
2021/08/26 01:44:12;;;;;;;14.50;11.20;;;;;;;;;;5120645;28;20500;-49
2021/08/26 01:46:40;;;;;;;14.30;12.37;;;;;;;;;;5120869;28;20561;-53
2021/08/26 01:49:12;;;;;;;15.37;12.27;;;;;;;;;;5126435;27;20484;-54
2021/08/26 01:51:41;;;;;;;13.27;10.90;;;;;;;;;;5141194;28;20437;-56
2021/08/26 01:54:08;;;;;;;13.00;10.80;;;;;;;;;;5141156;27;20438;-50
2021/08/26 01:56:36;;;;;;;20.37;11.90;;;;;;;;;;5141209;28;20438;-53
2021/08/26 01:59:04;;;;;;;15.30;12.57;;;;;;;;;;5141251;28;20438;-50
2021/08/26 02:01:32;;;;;;;13.30;11.37;;;;;;;;;;5120674;28;20519;-50
2021/08/26 02:03:59;;;;;;;13.00;11.47;;;;;;;;;;5099062;28;20506;-53
2021/08/26 02:06:26;;;;;;;14.80;11.30;;;;;;;;;;5099658;28;20412;-54
2021/08/26 02:08:56;;;;;;;14.27;10.20;;;;;;;;;;5112704;28;20434;-54
2021/08/26 02:11:23;;;;;;;11.10;9.37;;;;;;;;;;5123004;28;20517;-55
2021/08/26 02:13:50;;;;;;;11.20;9.83;;;;;;;;;;5104447;28;20827;-55
2021/08/26 02:16:22;;;;;;;11.07;9.87;;;;;;;;;;5104751;28;20437;-53
2021/08/26 02:18:49;;;;;;;12.27;10.40;;;;;;;;;;5100463;28;20460;-57
2021/08/26 02:21:16;;;;;;;12.10;10.23;;;;;;;;;;5097903;28;20456;-57
2021/08/26 02:23:43;;;;;;;11.17;9.87;;;;;;;;;;5103250;28;20493;-54
2021/08/26 02:26:11;;;;;;;13.80;10.50;;;;;;;;;;5111941;28;20476;-48
2021/08/26 02:28:38;;;;;;;12.47;9.37;;;;;;;;;;5108964;28;20472;-53
2021/08/26 02:31:05;;;;;;;11.23;9.73;;;;;;;;;;5098116;28;20448;-55
2021/08/26 02:33:35;;;;;;;8.60;7.70;;;;;;;;;;5102067;28;20436;-55
2021/08/26 02:36:02;;;;;;;10.57;8.30;;;;;;;;;;5105210;28;20447;-51
2021/08/26 02:38:30;;;;;;;8.90;8.00;;;;;;;;;;5117254;28;20459;-57
2021/08/26 02:41:11;;;;;;;8.93;7.60;;;;;;;;;;5097904;28;20468;-53
2021/08/26 02:43:39;;;;;;;9.00;7.70;;;;;;;;;;5112094;28;20491;-44
2021/08/26 02:46:06;;;;;;;10.33;8.37;;;;;;;;;;5111082;28;20440;-46
2021/08/26 02:48:40;;;;;;;10.73;8.60;;;;;;;;;;5080267;28;20459;-49
2021/08/26 02:51:07;;;;;;;9.90;6.40;;;;;;;;;;5097749;28;20456;-54
2021/08/26 02:53:34;;;;;;;10.03;4.03;;;;;;;;;;5099481;28;20432;-51
2021/08/26 02:56:10;;;;;;;26.23;4.50;;;;;;;;;;5098001;28;20443;-55
2021/08/26 02:58:38;;;;;;;11.57;3.50;;;;;;;;;;5086225;28;20514;-54
2021/08/26 03:01:05;;;;;;;10.77;3.60;;;;;;;;;;5117718;28;20462;-57
2021/08/26 03:03:32;;;;;;;6.63;4.07;;;;;;;;;;5115500;28;20448;-50
2021/08/26 03:06:01;;;;;;;14.80;5.50;;;;;;;;;;5117873;28;20442;-54
2021/08/26 03:08:35;;;;;;;10.60;6.30;;;;;;;;;;5118446;28;20469;-47
2021/08/26 03:11:02;;;;;;;11.47;4.63;;;;;;;;;;5117269;28;20458;-47
2021/08/26 03:13:29;;;;;;;10.83;4.97;;;;;;;;;;5117950;28;20500;-55
2021/08/26 03:15:58;;;;;;;11.37;4.90;;;;;;;;;;5117810;28;20466;-53
2021/08/26 03:18:25;;;;;;;11.73;5.93;;;;;;;;;;5117942;28;20506;-52
2021/08/26 03:20:52;;;;;;;9.93;4.97;;;;;;;;;;5117751;28;20419;-48
2021/08/26 03:23:23;;;;;;;13.50;5.33;;;;;;;;;;5118050;28;20463;-56
2021/08/26 03:25:50;;;;;;;12.87;5.00;;;;;;;;;;5116737;27;20545;-48
2021/08/26 03:28:20;;;;;;;15.83;5.50;;;;;;;;;;5138103;28;20472;-57
2021/08/26 03:30:48;;;;;;;10.57;5.60;;;;;;;;;;5137327;28;20520;-52
2021/08/26 03:33:17;;;;;;;14.83;5.90;;;;;;;;;;5137735;28;20469;-55
2021/08/26 03:35:45;;;;;;;9.03;4.47;;;;;;;;;;5120101;28;20442;-51
2021/08/26 03:38:23;;;;;;;10.47;4.80;;;;;;;;;;5117230;28;20463;-56
2021/08/26 03:40:50;;;;;;;15.27;4.70;;;;;;;;;;5123805;28;20442;-54
2021/08/26 03:43:18;;;;;;;8.23;4.20;;;;;;;;;;5136930;28;20545;-56
2021/08/26 03:45:48;;;;;;;10.43;4.90;;;;;;;;;;5137648;28;20473;-51
2021/08/26 03:48:18;;;;;;;10.50;5.47;;;;;;;;;;5122496;28;20458;-57
2021/08/26 03:50:49;;;;;;;9.90;5.13;;;;;;;;;;5117353;28;20435;-52
2021/08/26 03:53:16;;;;;;;12.43;6.20;;;;;;;;;;5136717;28;20457;-53
2021/08/26 03:55:45;;;;;;;12.67;5.60;;;;;;;;;;5136960;28;20456;-56
2021/08/26 03:58:12;;;;;;;12.63;5.17;;;;;;;;;;5132906;28;20431;-54
2021/08/26 04:00:40;;;;;;;6.77;4.70;;;;;;;;;;5101584;28;20482;-54
2021/08/26 04:03:07;;;;;;;14.63;5.83;;;;;;;;;;5096516;28;20431;-54
2021/08/26 04:05:35;;;;;;;14.23;5.43;;;;;;;;;;5096281;28;20514;-49
2021/08/26 04:08:02;;;;;;;9.37;4.50;;;;;;;;;;5096963;28;20443;-50
2021/08/26 04:10:29;;;;;;;12.03;5.13;;;;;;;;;;5096513;28;20511;-58
2021/08/26 04:12:58;;;;;;;10.03;5.00;;;;;;;;;;5096426;28;20459;-51
2021/08/26 04:15:26;;;;;;;15.00;5.70;;;;;;;;;;5100337;28;20462;-51
2021/08/26 04:17:53;;;;;;;18.50;7.63;;;;;;;;;;5116573;28;20427;-55
2021/08/26 04:20:41;;;;;;;13.60;5.93;;;;;;;;;;5116811;28;20454;-52
2021/08/26 04:23:09;;;;;;;11.77;6.70;;;;;;;;;;5116930;28;20464;-55
2021/08/26 04:25:37;;;;;;;11.23;7.00;;;;;;;;;;5112120;28;20471;-58
2021/08/26 04:28:18;;;;;;;12.47;5.80;;;;;;;;;;5096568;28;20460;-56
2021/08/26 04:30:45;;;;;;;11.47;6.57;;;;;;;;;;5095501;28;20444;-50
2021/08/26 04:33:16;;;;;;;12.33;5.20;;;;;;;;;;5096368;28;20476;-53
2021/08/26 04:35:43;;;;;;;11.87;6.33;;;;;;;;;;5096037;28;20445;-54
2021/08/26 04:38:16;;;;;;;10.40;6.17;;;;;;;;;;5095882;28;20650;-52
2021/08/26 04:40:48;;;;;;;10.73;7.00;;;;;;;;;;5096654;28;20452;-55
2021/08/26 04:43:19;;;;;;;11.60;6.70;;;;;;;;;;5097503;28;20479;-53
2021/08/26 04:46:07;;;;;;;10.73;7.10;;;;;;;;;;5099333;28;20510;-56
2021/08/26 04:48:37;;;;;;;11.57;6.40;;;;;;;;;;5110681;28;20512;-51
2021/08/26 04:51:04;;;;;;;16.60;6.83;;;;;;;;;;5120440;28;20446;-54
2021/08/26 04:53:32;;;;;;;12.70;6.20;;;;;;;;;;5126043;28;20480;-50
2021/08/26 04:56:00;;;;;;;12.23;6.93;;;;;;;;;;5140118;28;20594;-53
2021/08/26 04:58:33;;;;;;;13.67;7.07;;;;;;;;;;5140904;27;20450;-52
2021/08/26 05:01:00;;;;;;;11.43;7.30;;;;;;;;;;5140454;28;20475;-53
2021/08/26 05:03:27;;;;;;;15.63;6.53;;;;;;;;;;5140456;27;20489;-47
2021/08/26 05:05:55;;;;;;;12.57;7.57;;;;;;;;;;5132467;28;20573;-48
2021/08/26 05:08:24;;;;;;;11.00;5.87;;;;;;;;;;5140126;27;20978;-56
2021/08/26 05:14:09;;;;;;;24.67;6.67;;;;;;;;;;5137333;28;20453;-53
2021/08/26 05:16:43;;;;;;;13.30;6.80;;;;;;;;;;5126429;28;20452;-48
2021/08/26 05:19:10;;;;;;;9.90;5.57;;;;;;;;;;5109440;28;20435;-53
2021/08/26 05:21:41;;;;;;;12.83;5.27;;;;;;;;;;5131986;27;20481;-51
2021/08/26 05:24:13;;;;;;;12.20;4.63;;;;;;;;;;5119406;28;20451;-54
2021/08/26 05:26:41;;;;;;;7.93;3.67;;;;;;;;;;5117297;28;20494;-56
2021/08/26 05:29:11;;;;;;;9.90;4.27;;;;;;;;;;5119516;28;20485;-50
2021/08/26 05:31:38;;;;;;;7.43;3.23;;;;;;;;;;5107374;28;20468;-55
2021/08/26 05:34:11;;;;;;;8.40;3.73;;;;;;;;;;5116089;28;20438;-55
2021/08/26 05:37:21;;;;;;;13.43;4.60;;;;;;;;;;5128257;28;20427;-54
2021/08/26 05:40:04;;;;;;;10.70;3.67;;;;;;;;;;5116371;28;20534;-53
2021/08/26 05:42:36;;;;;;;14.40;5.23;;;;;;;;;;5104071;28;20456;-51
2021/08/26 05:48:11;;;;;;;10.37;4.17;;;;;;;;;;5110718;28;20461;-52
2021/08/26 05:50:54;;;;;;;12.10;3.97;;;;;;;;;;5101845;28;20509;-53
2021/08/26 05:53:50;;;;;;;21.53;4.20;;;;;;;;;;5118580;28;20468;-53
2021/08/26 05:56:23;;;;;;;9.97;3.60;;;;;;;;;;5118700;28;20439;-55
2021/08/26 05:58:54;;;;;;;6.80;2.80;;;;;;;;;;5111808;28;20509;-55
2021/08/26 06:01:23;;;;;;;8.20;3.20;;;;;;;;;;5109348;28;20484;-53
2021/08/26 06:04:13;;;;;;;5.37;2.30;;;;;;;;;;5118507;28;20447;-48
2021/08/26 06:06:59;;;;;;;9.23;3.57;;;;;;;;;;5116460;28;20486;-53
2021/08/26 06:09:29;;;;;;;9.80;3.10;;;;;;;;;;5117513;28;20467;-51
2021/08/26 06:12:06;;;;;;;5.43;2.83;;;;;;;;;;5113188;28;20449;-54
2021/08/26 06:14:34;;;;;;;7.23;3.27;;;;;;;;;;5137868;27;20442;-52
2021/08/26 06:17:11;;;;;;;16.43;3.13;;;;;;;;;;5138276;28;20450;-52
2021/08/26 06:19:41;;;;;;;9.23;2.60;;;;;;;;;;5120166;28;20464;-47
2021/08/26 06:22:10;;;;;;;11.37;2.30;;;;;;;;;;5125899;28;20443;-55
2021/08/26 06:24:39;;;;;;;10.37;2.53;;;;;;;;;;5117681;28;20439;-55
2021/08/26 06:27:06;;;;;;;9.77;2.80;;;;;;;;;;5117293;28;20443;-55
2021/08/26 06:29:35;;;;;;;12.43;3.00;;;;;;;;;;5118243;28;20419;-52
2021/08/26 06:32:05;;;;;;;14.83;3.30;;;;;;;;;;5116718;28;20443;-56
2021/08/26 06:34:34;;;;;;;9.40;3.53;;;;;;;;;;5101848;28;20452;-51
2021/08/26 06:37:02;;;;;;;7.90;2.43;;;;;;;;;;5096962;28;20448;-55
2021/08/26 06:39:44;;;;;;;7.77;2.33;;;;;;;;;;5099157;28;20460;-54
2021/08/26 06:42:15;;;;;;;6.50;2.10;;;;;;;;;;5124813;28;20478;-54
2021/08/26 06:44:42;;;;;;;5.97;2.80;;;;;;;;;;5116763;28;20786;-52
2021/08/26 06:47:12;;;;;;;9.37;3.10;;;;;;;;;;5117674;28;20447;-53
2021/08/26 06:52:45;;;;;;;6.47;2.23;;;;;;;;;;5105943;28;20433;-53
2021/08/26 06:55:14;;;;;;;6.30;2.37;;;;;;;;;;5137296;27;20458;-51
2021/08/26 06:57:50;;;;;;;7.33;2.07;;;;;;;;;;5137013;27;20470;-52
2021/08/26 07:00:17;;;;;;;7.17;1.83;;;;;;;;;;5117834;27;20459;-53
2021/08/26 07:02:45;;;;;;;6.47;2.67;;;;;;;;;;5104434;28;20451;-53
2021/08/26 07:05:19;;;;;;;5.80;2.20;;;;;;;;;;5115013;28;20479;-53
2021/08/26 07:07:56;;;;;;;11.40;2.53;;;;;;;;;;5109593;28;20518;-54
2021/08/26 07:10:25;;;;;;;9.20;1.67;;;;;;;;;;5096579;28;20455;-55
2021/08/26 07:12:52;;;;;;;5.20;2.60;;;;;;;;;;5110438;28;20483;-56
2021/08/26 07:15:24;;;;;;;9.63;1.57;;;;;;;;;;5117123;28;20461;-53
2021/08/26 07:17:51;;;;;;;6.03;1.87;;;;;;;;;;5123343;28;20512;-53
2021/08/26 07:20:19;;;;;;;6.80;1.80;;;;;;;;;;5116551;28;20485;-56
2021/08/26 07:23:11;;;;;;;5.90;1.63;;;;;;;;;;5098817;28;20459;-57
2021/08/26 07:25:42;;;;;;;4.83;2.27;;;;;;;;;;5116445;28;20483;-55
2021/08/26 07:28:12;;;;;;;7.10;1.90;;;;;;;;;;5116042;28;20467;-51
2021/08/26 07:30:40;;;;;;;5.40;2.30;;;;;;;;;;5098516;28;20449;-52
2021/08/26 07:33:07;;;;;;;8.70;3.40;;;;;;;;;;5121616;28;20533;-48
2021/08/26 07:35:43;;;;;;;13.43;3.00;;;;;;;;;;5121033;27;20475;-55
2021/08/26 07:38:11;;;;;;;7.87;2.80;;;;;;;;;;5116585;28;20459;-54
2021/08/26 07:40:39;;;;;;;10.30;3.37;;;;;;;;;;5103282;28;20463;-59
2021/08/26 07:43:09;;;;;;;9.87;3.00;;;;;;;;;;5096484;28;20506;-58
2021/08/26 07:45:38;;;;;;;9.93;3.00;;;;;;;;;;5109436;28;20544;-47
2021/08/26 07:48:06;;;;;;;6.97;2.50;;;;;;;;;;5110009;28;20448;-55
2021/08/26 07:50:34;;;;;;;10.10;3.83;;;;;;;;;;5113776;28;20497;-55
2021/08/26 07:53:08;;;;;;;11.73;2.70;;;;;;;;;;5104289;28;20487;-51
2021/08/26 07:55:35;;;;;;;11.27;3.97;;;;;;;;;;5116738;28;20455;-53
2021/08/26 07:58:03;;;;;;;12.07;4.17;;;;;;;;;;5116702;28;20484;-54
2021/08/26 08:00:32;;;;;;;14.20;3.50;;;;;;;;;;5116300;28;20506;-54
2021/08/26 08:03:05;;;;;;;14.57;4.20;;;;;;;;;;5113331;28;20476;-53
2021/08/26 08:05:33;;;;;;;10.83;3.90;;;;;;;;;;5115818;28;20472;-54
2021/08/26 08:08:00;;;;;;;16.20;3.23;;;;;;;;;;5116517;28;20443;-55
2021/08/26 08:10:28;;;;;;;11.77;3.67;;;;;;;;;;5116816;28;20523;-55
2021/08/26 08:12:55;;;;;;;6.43;3.20;;;;;;;;;;5116356;28;20439;-50
2021/08/26 08:15:40;;;;;;;7.97;3.60;;;;;;;;;;5115994;28;20530;-51
2021/08/26 08:18:07;;;;;;;13.33;4.07;;;;;;;;;;5118063;28;20538;-49
2021/08/26 08:20:35;;;;;;;10.93;4.07;;;;;;;;;;5120137;28;20453;-49
2021/08/26 08:23:03;;;;;;;12.43;4.07;;;;;;;;;;5119924;28;20463;-50
2021/08/26 08:25:30;;;;;;;8.47;3.60;;;;;;;;;;5114023;28;20451;-52
2021/08/26 08:27:58;;;;;;;10.70;5.20;;;;;;;;;;5120519;28;20636;-61
2021/08/26 08:30:31;;;;;;;11.57;5.13;;;;;;;;;;5120898;28;20451;-52
2021/08/26 08:32:59;;;;;;;12.23;4.40;;;;;;;;;;5120213;28;20439;-54
2021/08/26 08:35:29;;;;;;;10.80;4.80;;;;;;;;;;5119961;28;20451;-56
2021/08/26 08:37:58;;;;;;;19.07;5.10;;;;;;;;;;5120058;28;20443;-53
2021/08/26 08:40:34;;;;;;;19.53;5.23;;;;;;;;;;5120216;28;20427;-51
2021/08/26 08:43:27;;;;;;;11.07;4.03;;;;;;;;;;5119941;28;20472;-51
2021/08/26 08:45:56;;;;;;;11.60;4.97;;;;;;;;;;5119579;28;20483;-55
2021/08/26 08:48:42;;;;;;;10.53;5.50;;;;;;;;;;5119949;28;20463;-51
2021/08/26 08:51:12;;;;;;;13.27;4.93;;;;;;;;;;5119864;28;20450;-56
2021/08/26 08:53:40;;;;;;;13.77;3.60;;;;;;;;;;5119766;28;20477;-50
2021/08/26 08:56:08;;;;;;;10.87;3.80;;;;;;;;;;5121594;27;20447;-53
2021/08/26 08:58:36;;;;;;;10.83;3.40;;;;;;;;;;5126351;28;20452;-54
2021/08/26 09:01:32;;;;;;;12.57;3.60;;;;;;;;;;5108684;28;20530;-49
2021/08/26 09:04:00;;;;;;;11.67;4.27;;;;;;;;;;5098791;28;20451;-51
2021/08/26 09:06:41;;;;;;;11.20;2.83;;;;;;;;;;5101987;28;20491;-53
2021/08/26 09:09:10;;;;;;;12.40;4.37;;;;;;;;;;5101056;28;20526;-56
2021/08/26 09:11:38;;;;;;;14.60;4.77;;;;;;;;;;5104318;28;20448;-55
2021/08/26 09:14:17;;;;;;;11.63;3.43;;;;;;;;;;5099134;28;20435;-53
2021/08/26 09:16:45;;;;;;;12.90;3.60;;;;;;;;;;5099101;28;20486;-53
2021/08/26 09:19:34;;;;;;;15.07;5.03;;;;;;;;;;5099118;28;20463;-59
2021/08/26 09:22:05;;;;;;;12.10;3.30;;;;;;;;;;5101505;28;20501;-50
2021/08/26 09:24:43;;;;;;;12.63;3.90;;;;;;;;;;5119087;28;20455;-56
2021/08/26 09:27:11;;;;;;;14.97;4.27;;;;;;;;;;5117774;28;20530;-57
2021/08/26 09:29:58;;;;;;;12.40;3.73;;;;;;;;;;5108505;28;20554;-51
2021/08/26 09:32:33;;;;;;;10.10;3.23;;;;;;;;;;5119137;28;20458;-48
2021/08/26 09:35:10;;;;;;;14.47;4.30;;;;;;;;;;5118783;27;20522;-50
2021/08/26 09:37:43;;;;;;;12.97;5.10;;;;;;;;;;5117820;28;20451;-50
2021/08/26 09:40:12;;;;;;;11.00;3.80;;;;;;;;;;5118391;27;20503;-54
2021/08/26 09:42:39;;;;;;;12.47;4.00;;;;;;;;;;5117873;28;20449;-54
2021/08/26 09:45:47;;;;;;;8.53;3.90;;;;;;;;;;5118124;28;20454;-54
2021/08/26 09:48:21;;;;;;;11.60;4.10;;;;;;;;;;5116607;28;20551;-57
2021/08/26 09:50:50;;;;;;;9.70;4.00;;;;;;;;;;5117783;28;20445;-55
2021/08/26 09:53:19;;;;;;;9.40;4.10;;;;;;;;;;5117486;28;20459;-52
2021/08/26 09:55:58;;;;;;;11.50;4.50;;;;;;;;;;5117608;28;20453;-55
2021/08/26 09:58:26;;;;;;;11.00;3.50;;;;;;;;;;5117851;28;20459;-55
2021/08/26 10:01:07;;;;;;;10.47;4.40;;;;;;;;;;5117771;28;20521;-55
2021/08/26 10:03:45;;;;;;;9.90;4.93;;;;;;;;;;5118336;28;20451;-56
2021/08/26 10:06:13;;;;;;;8.73;5.17;;;;;;;;;;5117623;28;20535;-55
2021/08/26 10:08:43;;;;;;;16.20;4.80;;;;;;;;;;5117402;28;20461;-55
2021/08/26 10:11:21;;;;;;;9.40;4.57;;;;;;;;;;5117702;28;20463;-54
2021/08/26 10:13:49;;;;;;;11.17;5.47;;;;;;;;;;5115177;28;20503;-52
2021/08/26 10:16:17;;;;;;;13.70;5.07;;;;;;;;;;5117295;28;20463;-49
2021/08/26 10:21:48;;;;;;;15.67;6.70;;;;;;;;;;5110191;28;20484;-53
2021/08/26 10:24:23;;;;;;;12.53;5.83;;;;;;;;;;5097907;28;20475;-59
2021/08/26 10:26:53;;;;;;;13.60;6.90;;;;;;;;;;5096337;28;20490;-55
2021/08/26 10:29:43;;;;;;;20.03;6.73;;;;;;;;;;5134325;28;20430;-55
2021/08/26 10:32:37;;;;;;;12.53;5.20;;;;;;;;;;5096630;28;20448;-47
2021/08/26 10:35:06;;;;;;;14.27;6.00;;;;;;;;;;5096980;28;20716;-54
2021/08/26 10:38:02;;;;;;;9.77;5.00;;;;;;;;;;5097357;28;20429;-54
2021/08/26 10:40:36;;;;;;;14.40;6.90;;;;;;;;;;5060825;28;20507;-51
2021/08/26 10:43:04;;;;;;;15.27;4.93;;;;;;;;;;5096838;28;20630;-56
2021/08/26 10:45:49;;;;;;;10.50;5.10;;;;;;;;;;5103862;28;20449;-51
2021/08/26 10:48:35;;;;;;;10.50;4.93;;;;;;;;;;5101029;28;20490;-54
2021/08/26 10:51:05;;;;;;;14.17;6.50;;;;;;;;;;5135694;28;20523;-57
2021/08/26 10:53:40;;;;;;;10.83;4.73;;;;;;;;;;5107859;28;20444;-53
2021/08/26 10:56:25;;;;;;;11.23;5.33;;;;;;;;;;5102221;28;20550;-54
2021/08/26 10:59:26;;;;;;;13.43;5.13;;;;;;;;;;5098686;28;20439;-50
2021/08/26 11:02:12;;;;;;;8.53;4.50;;;;;;;;;;5102425;28;20498;-51
2021/08/26 11:04:39;;;;;;;13.23;7.70;;;;;;;;;;5116548;28;20452;-53
2021/08/26 11:16:40;;;;;;;12.93;4.60;;;;;;;;;;5136438;27;20446;-53
2021/08/26 11:19:30;;;;;;;12.80;7.10;;;;;;;;;;5126961;22;20556;-49
2021/08/26 11:22:00;;;;;;;12.73;6.00;;;;;;;;;;5107520;28;20451;-55
2021/08/26 11:24:51;;;;;;;9.73;4.40;;;;;;;;;;5102391;28;20439;-58
2021/08/26 11:27:25;;;;;;;11.90;4.70;;;;;;;;;;5081533;28;20467;-51
2021/08/26 11:29:57;;;;;;;9.67;5.43;;;;;;;;;;5096881;28;20455;-53
2021/08/26 11:32:25;;;;;;;10.40;4.17;;;;;;;;;;5094847;28;20496;-53
2021/08/26 11:34:54;;;;;;;11.40;6.57;;;;;;;;;;5097106;28;20456;-52
2021/08/26 11:37:28;;;;;;;12.77;5.10;;;;;;;;;;5096849;28;20499;-49
2021/08/26 11:39:57;;;;;;;12.40;4.80;;;;;;;;;;5096987;28;20474;-52
2021/08/26 11:42:35;;;;;;;11.07;3.30;;;;;;;;;;5097530;28;20460;-50
2021/08/26 11:45:17;;;;;;;8.00;4.43;;;;;;;;;;5097247;28;20463;-54
2021/08/26 11:47:46;;;;;;;7.20;4.33;;;;;;;;;;5095526;28;20503;-50
2021/08/26 11:50:19;;;;;;;10.60;4.17;;;;;;;;;;5105346;28;20498;-53
2021/08/26 11:53:00;;;;;;;7.93;3.80;;;;;;;;;;5117267;28;20435;-59
2021/08/26 11:55:50;;;;;;;10.23;3.90;;;;;;;;;;5102329;28;20444;-53
2021/08/26 12:01:27;;;;;;;8.30;3.83;;;;;;;;;;5094577;28;20441;-49
2021/08/26 12:04:44;;;;;;;7.33;3.40;;;;;;;;;;5097860;28;20460;-55
2021/08/26 12:08:01;;;;;;;11.07;6.40;;;;;;;;;;5116388;28;20474;-52
2021/08/26 12:10:33;;;;;;;9.47;5.40;;;;;;;;;;5127788;27;20588;-47
2021/08/26 12:13:04;;;;;;;10.63;6.00;;;;;;;;;;5137847;28;20490;-56
2021/08/26 12:15:35;;;;;;;6.97;3.83;;;;;;;;;;5137491;27;20434;-53
2021/08/26 12:18:10;;;;;;;9.93;2.90;;;;;;;;;;5139111;27;20466;-53
2021/08/26 12:20:44;;;;;;;12.17;4.40;;;;;;;;;;5141333;28;20482;-50
2021/08/26 12:23:17;;;;;;;10.27;3.97;;;;;;;;;;5137664;27;20438;-49
2021/08/26 12:25:46;;;;;;;9.60;3.37;;;;;;;;;;5137079;28;20484;-51
2021/08/26 12:28:17;;;;;;;10.50;3.57;;;;;;;;;;5137429;27;20482;-53
2021/08/26 12:31:11;;;;;;;11.40;3.27;;;;;;;;;;5137466;27;20462;-53
2021/08/26 12:33:57;;;;;;;8.00;3.77;;;;;;;;;;5137510;27;20434;-55
2021/08/26 12:36:25;;;;;;;4.23;2.30;;;;;;;;;;5137028;27;20462;-53
2021/08/26 12:38:52;;;;;;;13.07;4.87;;;;;;;;;;5137065;27;20612;-56
2021/08/26 12:41:23;;;;;;;7.47;4.10;;;;;;;;;;5137028;27;20464;-47
2021/08/26 12:43:56;;;;;;;9.03;2.60;;;;;;;;;;5137187;27;20454;-53
2021/08/26 12:46:35;;;;;;;4.77;3.00;;;;;;;;;;5136148;28;20501;-49
2021/08/26 12:49:10;;;;;;;8.37;3.30;;;;;;;;;;5131560;28;20462;-52
2021/08/26 12:51:53;;;;;;;6.73;3.50;;;;;;;;;;5135282;27;20479;-53
2021/08/26 12:54:24;;;;;;;8.33;3.23;;;;;;;;;;5140268;28;20525;-50
2021/08/26 12:56:59;;;;;;;13.23;2.80;;;;;;;;;;5136750;27;20522;-54
2021/08/26 12:59:39;;;;;;;6.00;2.50;;;;;;;;;;5135013;27;20517;-47
2021/08/26 13:02:12;;;;;;;7.97;3.27;;;;;;;;;;5116127;28;20477;-48
2021/08/26 13:05:04;;;;;;;8.57;2.50;;;;;;;;;;5118034;28;20459;-50
2021/08/26 13:07:32;;;;;;;6.70;3.30;;;;;;;;;;5119868;28;20509;-55
2021/08/26 13:10:41;;;;;;;10.00;3.37;;;;;;;;;;5101832;28;20469;-49
2021/08/26 13:13:15;;;;;;;9.43;3.37;;;;;;;;;;5127617;28;20486;-51
2021/08/26 13:15:44;;;;;;;8.77;3.13;;;;;;;;;;5140286;27;20445;-51
2021/08/26 13:18:17;;;;;;;10.70;3.80;;;;;;;;;;5156154;27;20464;-54
2021/08/26 13:20:50;;;;;;;10.60;3.63;;;;;;;;;;5147603;27;20434;-51
2021/08/26 13:23:46;;;;;;;7.30;3.10;;;;;;;;;;5138898;27;20468;-56
2021/08/26 13:26:20;;;;;;;9.93;3.17;;;;;;;;;;5119519;28;20465;-57
2021/08/26 13:31:38;;;;;;;7.23;3.20;;;;;;;;;;5128339;28;20455;-50
2021/08/26 13:34:05;;;;;;;11.90;3.27;;;;;;;;;;5139823;27;20458;-57
2021/08/26 13:39:50;;;;;;;9.30;3.10;;;;;;;;;;5125580;28;20539;-56
2021/08/26 13:42:18;;;;;;;6.20;2.23;;;;;;;;;;5139927;27;20451;-53
2021/08/26 13:45:13;;;;;;;9.00;3.00;;;;;;;;;;5152126;27;20485;-47
2021/08/26 13:48:09;;;;;;;6.83;2.37;;;;;;;;;;5139850;27;20547;-54
2021/08/26 13:53:36;;;;;;;6.03;3.07;;;;;;;;;;5136207;27;20506;-53
2021/08/26 13:56:04;;;;;;;4.90;2.20;;;;;;;;;;5129664;28;20459;-57
2021/08/26 13:58:31;;;;;;;7.50;2.30;;;;;;;;;;5123846;27;20442;-49
2021/08/26 14:01:05;;;;;;;5.57;2.17;;;;;;;;;;5139581;28;20461;-51
2021/08/26 14:06:58;;;;;;;5.80;2.47;;;;;;;;;;5114900;28;20459;-52
2021/08/26 14:09:32;;;;;;;5.90;2.83;;;;;;;;;;5118890;28;20447;-55
2021/08/26 14:12:22;;;;;;;6.37;2.60;;;;;;;;;;5118883;28;20471;-54
2021/08/26 14:14:51;;;;;;;6.03;2.80;;;;;;;;;;5124435;28;20466;-49
2021/08/26 14:17:20;;;;;;;4.70;2.50;;;;;;;;;;5138458;27;20455;-52
2021/08/26 14:19:54;;;;;;;6.17;3.10;;;;;;;;;;5148018;27;20502;-54
2021/08/26 14:22:24;;;;;;;6.10;2.30;;;;;;;;;;5139289;27;20454;-55
2021/08/26 14:24:57;;;;;;;5.43;2.87;;;;;;;;;;5138750;28;20428;-58
2021/08/26 14:27:34;;;;;;;5.50;2.57;;;;;;;;;;5135719;27;20506;-49
2021/08/26 14:30:02;;;;;;;9.70;2.70;;;;;;;;;;5138953;27;20453;-55
2021/08/26 14:32:30;;;;;;;6.10;2.50;;;;;;;;;;5139084;27;20434;-49
2021/08/26 14:35:11;;;;;;;5.60;2.90;;;;;;;;;;5122019;28;20461;-56
2021/08/26 14:37:52;;;;;;;6.63;2.67;;;;;;;;;;5132908;27;20445;-50
2021/08/26 14:40:19;;;;;;;9.27;2.67;;;;;;;;;;5145098;27;20845;-48
2021/08/26 14:42:48;;;;;;;5.73;2.40;;;;;;;;;;5120776;28;20451;-56
2021/08/26 14:45:15;;;;;;;6.37;2.90;;;;;;;;;;5118256;28;20469;-52
2021/08/26 14:47:42;;;;;;;5.47;2.37;;;;;;;;;;5118398;28;20479;-56
2021/08/26 14:50:35;;;;;;;5.67;2.00;;;;;;;;;;5123152;28;20435;-52
2021/08/26 14:53:04;;;;;;;5.23;2.03;;;;;;;;;;5141745;27;20504;-48
2021/08/26 14:55:32;;;;;;;5.57;2.13;;;;;;;;;;5159256;27;20441;-55
2021/08/26 14:58:00;;;;;;;6.93;2.90;;;;;;;;;;5159074;27;20434;-55
2021/08/26 15:00:33;;;;;;;8.23;2.50;;;;;;;;;;5159425;27;20429;-58
2021/08/26 15:06:02;;;;;;;9.03;2.60;;;;;;;;;;5132998;28;20510;-49
2021/08/26 15:08:33;;;;;;;4.50;2.83;;;;;;;;;;5136376;28;20466;-50
2021/08/26 15:13:51;;;;;;;5.90;2.37;;;;;;;;;;5135656;27;20442;-53
2021/08/26 15:16:24;;;;;;;5.13;2.00;;;;;;;;;;5137878;27;20473;-59
2021/08/26 15:18:52;;;;;;;6.13;2.97;;;;;;;;;;5136601;27;20422;-55
2021/08/26 15:21:46;;;;;;;10.10;2.80;;;;;;;;;;5133435;28;20447;-58
2021/08/26 15:24:21;;;;;;;6.20;2.37;;;;;;;;;;5125279;27;20455;-54
2021/08/26 15:26:48;;;;;;;5.10;2.40;;;;;;;;;;5115315;28;20438;-58
2021/08/26 15:29:20;;;;;;;6.27;3.17;;;;;;;;;;5116227;28;20517;-57
2021/08/26 15:31:56;;;;;;;7.87;2.57;;;;;;;;;;5116646;28;20461;-57
2021/08/26 15:34:31;;;;;;;7.23;2.70;;;;;;;;;;5116607;28;20474;-56
2021/08/26 15:37:11;;;;;;;7.40;3.63;;;;;;;;;;5117084;28;20829;-50
2021/08/26 15:42:42;;;;;;;7.07;2.77;;;;;;;;;;5121961;28;20434;-52
2021/08/26 15:45:18;;;;;;;8.17;3.67;;;;;;;;;;5151978;27;20473;-52
2021/08/26 15:47:51;;;;;;;6.10;3.00;;;;;;;;;;5132182;27;20493;-53
2021/08/26 15:50:40;;;;;;;5.03;2.20;;;;;;;;;;5137799;28;20454;-59
2021/08/26 15:53:29;;;;;;;10.30;3.10;;;;;;;;;;5138256;27;20531;-52
2021/08/26 15:55:57;;;;;;;4.00;1.70;;;;;;;;;;5119412;28;20465;-47